createdAt,value
2022-08-27T00:00:12.474Z,17.13
2022-08-27T00:01:15.793Z,17.19
2022-08-27T00:02:19.492Z,17.19
2022-08-27T00:03:55.189Z,17.19
2022-08-27T00:04:59.138Z,17.19
2022-08-27T00:06:02.533Z,17.19
2022-08-27T00:07:42.430Z,17.19
2022-08-27T00:08:46.262Z,17.13
2022-08-27T00:09:50.756Z,17.13
2022-08-27T00:11:26.282Z,17.13
2022-08-27T00:12:29.579Z,17.13
2022-08-27T00:13:33.065Z,17.13
2022-08-27T00:15:08.627Z,17.06
2022-08-27T00:16:15.865Z,17.06
2022-08-27T00:17:20.572Z,17.06
2022-08-27T00:19:00.399Z,17.06
2022-08-27T00:20:03.857Z,17.06
2022-08-27T00:21:07.304Z,17.06
2022-08-27T00:22:43.255Z,17.00
2022-08-27T00:23:46.693Z,17.00
2022-08-27T00:24:50.042Z,17.00
2022-08-27T00:26:25.342Z,17.00
2022-08-27T00:27:35.168Z,17.00
2022-08-27T00:28:38.615Z,17.00
2022-08-27T00:30:16.133Z,17.00
2022-08-27T00:31:20.280Z,17.00
2022-08-27T00:32:35.081Z,16.94
2022-08-27T00:34:12.864Z,16.88
2022-08-27T00:35:16.673Z,16.81
2022-08-27T00:36:20.226Z,16.81
2022-08-27T00:37:55.645Z,16.75
2022-08-27T00:38:59.241Z,16.75
2022-08-27T00:40:02.766Z,16.75
2022-08-27T00:41:38.612Z,16.75
2022-08-27T00:42:41.957Z,16.75
2022-08-27T00:43:45.397Z,16.75
2022-08-27T00:45:21.067Z,16.69
2022-08-27T00:46:25.092Z,16.69
2022-08-27T00:47:28.546Z,16.69
2022-08-27T00:49:05.173Z,16.63
2022-08-27T00:50:08.532Z,16.56
2022-08-27T00:51:12.008Z,16.56
2022-08-27T00:52:47.598Z,16.56
2022-08-27T00:53:53.926Z,16.56
2022-08-27T00:55:03.688Z,16.56
2022-08-27T00:56:42.485Z,16.50
2022-08-27T00:57:49.737Z,16.50
2022-08-27T00:58:57.331Z,16.44
2022-08-27T01:00:12.191Z,16.44
2022-08-27T01:01:16.043Z,16.44
2022-08-27T01:02:22.513Z,16.38
2022-08-27T01:03:58.275Z,16.38
2022-08-27T01:05:01.394Z,16.38
2022-08-27T01:06:04.829Z,16.38
2022-08-27T01:07:40.621Z,16.38
2022-08-27T01:08:44.343Z,16.44
2022-08-27T01:09:47.823Z,16.44
2022-08-27T01:11:25.917Z,16.44
2022-08-27T01:12:29.921Z,16.44
2022-08-27T01:13:58.781Z,16.44
2022-08-27T01:15:36.533Z,16.44
2022-08-27T01:16:40.346Z,16.44
2022-08-27T01:17:43.880Z,16.44
2022-08-27T01:19:19.625Z,16.44
2022-08-27T01:20:23.092Z,16.44
2022-08-27T01:21:26.479Z,16.44
2022-08-27T01:23:09.403Z,16.44
2022-08-27T01:24:14.203Z,16.44
2022-08-27T01:25:19.699Z,16.44
2022-08-27T01:26:55.249Z,16.44
2022-08-27T01:28:05.325Z,16.44
2022-08-27T01:29:23.836Z,16.38
2022-08-27T01:30:59.333Z,16.31
2022-08-27T01:32:03.353Z,16.31
2022-08-27T01:33:06.726Z,16.31
2022-08-27T01:34:44.115Z,16.31
2022-08-27T01:35:47.475Z,16.25
2022-08-27T01:36:51.012Z,16.25
2022-08-27T01:38:44.398Z,16.25
2022-08-27T01:39:54.628Z,16.25
2022-08-27T01:41:03.243Z,16.25
2022-08-27T01:42:40.010Z,16.25
2022-08-27T01:43:43.348Z,16.25
2022-08-27T01:44:46.891Z,16.25
2022-08-27T01:46:24.742Z,16.19
2022-08-27T01:47:31.232Z,16.19
2022-08-27T01:48:34.850Z,16.13
2022-08-27T01:50:10.773Z,16.13
2022-08-27T01:51:14.201Z,16.13
2022-08-27T01:52:17.309Z,16.13
2022-08-27T01:53:52.982Z,16.06
2022-08-27T01:54:56.445Z,16.06
2022-08-27T01:55:59.806Z,16.00
2022-08-27T01:57:35.441Z,16.00
2022-08-27T01:58:38.778Z,16.00
2022-08-27T01:59:42.305Z,15.94
2022-08-27T02:00:12.744Z,15.94
2022-08-27T02:01:16.308Z,15.94
2022-08-27T02:02:20.112Z,15.94
2022-08-27T02:03:55.600Z,15.88
2022-08-27T02:04:59.125Z,15.88
2022-08-27T02:06:02.521Z,15.88
2022-08-27T02:07:37.950Z,15.88
2022-08-27T02:08:41.170Z,15.81
2022-08-27T02:09:44.685Z,15.75
2022-08-27T02:11:20.214Z,15.63
2022-08-27T02:12:31.527Z,15.56
2022-08-27T02:13:34.975Z,15.56
2022-08-27T02:15:19.795Z,15.50
2022-08-27T02:16:23.322Z,15.50
2022-08-27T02:17:39.192Z,15.50
2022-08-27T02:19:17.579Z,15.50
2022-08-27T02:20:22.103Z,15.50
2022-08-27T02:21:27.050Z,15.50
2022-08-27T02:23:03.003Z,15.50
2022-08-27T02:24:06.288Z,15.50
2022-08-27T02:25:10.265Z,15.50
2022-08-27T02:26:45.954Z,15.44
2022-08-27T02:27:49.433Z,15.44
2022-08-27T02:28:53.139Z,15.44
2022-08-27T02:30:30.503Z,15.38
2022-08-27T02:31:34.023Z,15.38
2022-08-27T02:32:37.564Z,15.38
2022-08-27T02:34:12.854Z,15.31
2022-08-27T02:35:16.294Z,15.31
2022-08-27T02:36:19.601Z,15.25
2022-08-27T02:37:55.046Z,15.25
2022-08-27T02:39:00.685Z,15.25
2022-08-27T02:40:04.193Z,15.25
2022-08-27T02:41:40.481Z,15.19
2022-08-27T02:42:44.226Z,15.19
2022-08-27T02:44:01.111Z,15.19
2022-08-27T02:45:41.709Z,15.19
2022-08-27T02:46:45.141Z,15.19
2022-08-27T02:47:51.555Z,15.19
2022-08-27T02:49:27.087Z,15.19
2022-08-27T02:50:30.469Z,15.19
2022-08-27T02:51:33.810Z,15.19
2022-08-27T02:53:13.008Z,15.19
2022-08-27T02:54:16.680Z,15.13
2022-08-27T02:55:26.696Z,15.13
2022-08-27T02:57:08.192Z,15.13
2022-08-27T02:58:16.940Z,15.06
2022-08-27T02:59:20.875Z,15.06
2022-08-27T03:00:12.322Z,15.00
2022-08-27T03:01:15.575Z,15.00
2022-08-27T03:02:19.787Z,15.00
2022-08-27T03:03:58.176Z,14.94
2022-08-27T03:05:01.338Z,14.94
2022-08-27T03:06:04.645Z,14.94
2022-08-27T03:07:40.162Z,14.94
2022-08-27T03:08:52.585Z,14.94
2022-08-27T03:09:56.620Z,14.94
2022-08-27T03:11:32.043Z,14.94
2022-08-27T03:12:35.321Z,15.00
2022-08-27T03:13:38.582Z,14.94
2022-08-27T03:15:14.267Z,15.00
2022-08-27T03:16:17.753Z,15.00
2022-08-27T03:17:21.493Z,15.00
2022-08-27T03:18:57.985Z,15.00
2022-08-27T03:20:07.476Z,15.06
2022-08-27T03:21:10.764Z,15.00
2022-08-27T03:22:45.949Z,15.00
2022-08-27T03:23:50.034Z,15.06
2022-08-27T03:25:07.429Z,15.00
2022-08-27T03:26:52.694Z,15.06
2022-08-27T03:27:57.255Z,15.06
2022-08-27T03:29:15.453Z,15.06
2022-08-27T03:30:53.997Z,15.06
2022-08-27T03:31:57.990Z,15.06
2022-08-27T03:33:01.631Z,15.00
2022-08-27T03:34:37.333Z,14.94
2022-08-27T03:35:40.613Z,14.94
2022-08-27T03:36:49.487Z,14.94
2022-08-27T03:38:24.871Z,14.88
2022-08-27T03:39:28.253Z,14.88
2022-08-27T03:40:31.940Z,14.88
2022-08-27T03:42:35.731Z,14.88
2022-08-27T03:43:40.043Z,14.88
2022-08-27T03:44:43.442Z,14.81
2022-08-27T03:46:46.880Z,14.88
2022-08-27T03:47:50.349Z,14.88
2022-08-27T03:48:53.994Z,14.88
2022-08-27T03:50:39.951Z,14.88
2022-08-27T03:51:43.334Z,14.94
2022-08-27T03:52:47.242Z,14.94
2022-08-27T03:54:22.922Z,14.94
2022-08-27T03:55:26.324Z,14.94
2022-08-27T03:56:29.713Z,14.94
2022-08-27T03:58:04.879Z,14.94
2022-08-27T03:59:08.464Z,14.94
2022-08-27T04:00:12.133Z,14.94
2022-08-27T04:01:15.428Z,14.94
2022-08-27T04:02:19.442Z,14.94
2022-08-27T04:03:55.567Z,14.94
2022-08-27T04:04:58.936Z,14.94
2022-08-27T04:05:41.414Z,14.94
2022-08-27T04:06:48.254Z,14.88
2022-08-27T04:07:55.626Z,14.88
2022-08-27T04:09:31.722Z,14.81
2022-08-27T04:10:35.158Z,14.81
2022-08-27T04:11:38.589Z,14.81
2022-08-27T04:13:14.180Z,14.81
2022-08-27T04:14:26.197Z,14.81
2022-08-27T04:15:30.769Z,14.81
2022-08-27T04:17:11.386Z,14.81
2022-08-27T04:18:14.849Z,14.81
2022-08-27T04:19:18.373Z,14.81
2022-08-27T04:21:21.575Z,14.81
2022-08-27T04:22:24.985Z,14.81
2022-08-27T04:23:28.327Z,14.81
2022-08-27T04:25:06.176Z,14.75
2022-08-27T04:26:13.815Z,14.75
2022-08-27T04:27:17.607Z,14.75
2022-08-27T04:28:53.300Z,14.75
2022-08-27T04:29:56.753Z,14.69
2022-08-27T04:31:00.099Z,14.69
2022-08-27T04:32:41.244Z,14.69
2022-08-27T04:33:50.591Z,14.63
2022-08-27T04:34:54.770Z,14.56
2022-08-27T04:36:30.449Z,14.50
2022-08-27T04:37:33.911Z,14.50
2022-08-27T04:38:37.326Z,14.50
2022-08-27T04:40:12.886Z,14.50
2022-08-27T04:41:16.588Z,14.56
2022-08-27T04:42:20.044Z,14.56
2022-08-27T04:43:58.424Z,14.56
2022-08-27T04:45:01.862Z,14.63
2022-08-27T04:46:05.385Z,14.56
2022-08-27T04:47:41.683Z,14.63
2022-08-27T04:48:45.809Z,14.63
2022-08-27T04:49:56.923Z,14.63
2022-08-27T04:51:39.990Z,14.63
2022-08-27T04:52:46.165Z,14.63
2022-08-27T04:53:52.522Z,14.63
2022-08-27T04:55:40.381Z,14.63
2022-08-27T04:56:49.429Z,14.63
2022-08-27T04:57:52.826Z,14.63
2022-08-27T04:59:28.669Z,14.63
2022-08-27T05:00:12.229Z,14.63
2022-08-27T05:01:15.692Z,14.56
2022-08-27T05:02:19.659Z,14.56
2022-08-27T05:03:55.248Z,14.56
2022-08-27T05:05:01.783Z,14.56
2022-08-27T05:06:08.554Z,14.56
2022-08-27T05:07:44.046Z,14.63
2022-08-27T05:08:48.431Z,14.63
2022-08-27T05:09:53.232Z,14.63
2022-08-27T05:11:28.739Z,14.63
2022-08-27T05:12:33.573Z,14.63
2022-08-27T05:13:40.632Z,14.63
2022-08-27T05:15:16.933Z,14.63
2022-08-27T05:16:20.589Z,14.69
2022-08-27T05:17:23.988Z,14.69
2022-08-27T05:18:59.434Z,14.69
2022-08-27T05:20:02.666Z,14.63
2022-08-27T05:21:06.123Z,14.63
2022-08-27T05:22:42.771Z,14.63
2022-08-27T05:23:46.279Z,14.63
2022-08-27T05:24:50.544Z,14.63
2022-08-27T05:26:26.446Z,14.63
2022-08-27T05:27:29.880Z,14.63
2022-08-27T05:28:33.407Z,14.63
2022-08-27T05:30:09.189Z,14.63
2022-08-27T05:31:13.162Z,14.63
2022-08-27T05:32:17.407Z,14.69
2022-08-27T05:33:53.888Z,14.69
2022-08-27T05:35:07.874Z,14.69
2022-08-27T05:36:13.681Z,14.69
2022-08-27T05:37:56.435Z,14.75
2022-08-27T05:38:59.984Z,14.75
2022-08-27T05:40:03.565Z,14.75
2022-08-27T05:41:40.884Z,14.75
2022-08-27T05:42:46.468Z,14.75
2022-08-27T05:43:53.769Z,14.81
2022-08-27T05:46:01.436Z,14.81
2022-08-27T05:47:06.998Z,14.81
2022-08-27T05:48:19.793Z,14.81
2022-08-27T05:49:55.336Z,14.81
2022-08-27T05:51:04.310Z,14.81
2022-08-27T05:52:17.641Z,14.88
2022-08-27T05:53:54.750Z,14.88
2022-08-27T05:55:01.154Z,14.88
2022-08-27T05:56:04.503Z,14.88
2022-08-27T05:57:40.029Z,14.88
2022-08-27T05:58:43.486Z,14.88
2022-08-27T05:59:50.307Z,14.94
2022-08-27T06:00:14.846Z,14.94
2022-08-27T06:01:21.167Z,14.94
2022-08-27T06:02:24.690Z,14.94
2022-08-27T06:04:00.605Z,14.94
2022-08-27T06:05:10.159Z,14.94
2022-08-27T06:06:14.799Z,14.94
2022-08-27T06:07:50.418Z,15.00
2022-08-27T06:08:54.001Z,15.00
2022-08-27T06:09:58.254Z,15.00
2022-08-27T06:11:38.396Z,15.06
2022-08-27T06:12:41.776Z,15.13
2022-08-27T06:13:49.234Z,15.13
2022-08-27T06:15:24.661Z,15.25
2022-08-27T06:16:28.576Z,15.25
2022-08-27T06:17:31.894Z,15.31
2022-08-27T06:19:07.384Z,15.44
2022-08-27T06:20:10.785Z,15.50
2022-08-27T06:21:21.505Z,15.50
2022-08-27T06:23:28.063Z,15.69
2022-08-27T06:24:31.519Z,15.69
2022-08-27T06:25:34.941Z,15.75
2022-08-27T06:27:10.459Z,15.88
2022-08-27T06:28:13.878Z,15.94
2022-08-27T06:29:17.210Z,16.00
2022-08-27T06:30:58.117Z,16.13
2022-08-27T06:32:02.107Z,16.19
2022-08-27T06:33:05.399Z,16.19
2022-08-27T06:34:43.808Z,16.31
2022-08-27T06:35:47.170Z,16.31
2022-08-27T06:36:50.474Z,16.38
2022-08-27T06:38:25.949Z,16.38
2022-08-27T06:39:30.861Z,16.38
2022-08-27T06:40:35.569Z,16.38
2022-08-27T06:42:11.086Z,16.38
2022-08-27T06:43:15.569Z,16.38
2022-08-27T06:44:22.894Z,16.38
2022-08-27T06:45:58.145Z,16.38
2022-08-27T06:47:04.607Z,16.44
2022-08-27T06:48:12.635Z,16.44
2022-08-27T06:49:51.714Z,16.50
2022-08-27T06:51:02.514Z,16.50
2022-08-27T06:52:05.816Z,16.44
2022-08-27T06:53:42.112Z,16.38
2022-08-27T06:54:45.548Z,16.38
2022-08-27T06:55:48.947Z,16.44
2022-08-27T06:57:24.604Z,16.50
2022-08-27T06:58:28.127Z,16.63
2022-08-27T06:59:31.487Z,16.69
2022-08-27T07:00:12.548Z,16.81
2022-08-27T07:01:16.073Z,16.88
2022-08-27T07:02:23.026Z,16.94
2022-08-27T07:03:59.253Z,17.06
2022-08-27T07:05:13.152Z,17.13
2022-08-27T07:06:16.497Z,17.13
2022-08-27T07:08:11.747Z,17.25
2022-08-27T07:09:15.321Z,17.38
2022-08-27T07:10:19.034Z,17.50
2022-08-27T07:11:54.674Z,17.56
2022-08-27T07:13:05.735Z,17.63
2022-08-27T07:14:09.297Z,17.69
2022-08-27T07:15:51.231Z,17.88
2022-08-27T07:16:58.806Z,18.00
2022-08-27T07:18:08.873Z,18.19
2022-08-27T07:19:55.891Z,18.31
2022-08-27T07:20:59.319Z,18.31
2022-08-27T07:22:02.830Z,18.38
2022-08-27T07:23:38.261Z,18.19
2022-08-27T07:24:41.723Z,18.13
2022-08-27T07:25:45.080Z,18.00
2022-08-27T07:27:20.676Z,17.94
2022-08-27T07:28:23.963Z,17.94
2022-08-27T07:29:31.705Z,17.94
2022-08-27T07:31:09.217Z,18.00
2022-08-27T07:32:12.833Z,18.06
2022-08-27T07:33:23.852Z,18.19
2022-08-27T07:35:09.044Z,18.25
2022-08-27T07:36:12.679Z,18.38
2022-08-27T07:37:16.197Z,18.44
2022-08-27T07:39:01.212Z,18.56
2022-08-27T07:40:05.208Z,18.56
2022-08-27T07:41:10.201Z,18.56
2022-08-27T07:42:49.292Z,18.56
2022-08-27T07:43:56.046Z,18.63
2022-08-27T07:45:05.876Z,18.63
2022-08-27T07:46:45.741Z,18.69
2022-08-27T07:47:50.877Z,18.69
2022-08-27T07:48:54.336Z,18.69
2022-08-27T07:50:29.724Z,18.81
2022-08-27T07:51:32.992Z,18.81
2022-08-27T07:52:36.437Z,18.88
2022-08-27T07:54:11.642Z,19.00
2022-08-27T07:55:15.007Z,19.00
2022-08-27T07:56:18.889Z,19.06
2022-08-27T07:58:02.902Z,19.19
2022-08-27T07:59:10.967Z,19.25
2022-08-27T08:00:12.292Z,19.25
2022-08-27T08:01:18.587Z,19.38
2022-08-27T08:02:23.312Z,19.38
2022-08-27T08:03:59.264Z,19.38
2022-08-27T08:05:06.966Z,19.38
2022-08-27T08:06:10.976Z,19.38
2022-08-27T08:07:46.730Z,19.44
2022-08-27T08:08:50.269Z,19.50
2022-08-27T08:09:57.626Z,19.56
2022-08-27T08:11:33.078Z,19.50
2022-08-27T08:12:36.353Z,19.56
2022-08-27T08:13:39.695Z,19.63
2022-08-27T08:15:15.069Z,19.75
2022-08-27T08:16:18.450Z,19.81
2022-08-27T08:17:28.015Z,19.81
2022-08-27T08:19:03.552Z,19.75
2022-08-27T08:20:21.861Z,19.69
2022-08-27T08:22:00.327Z,19.44
2022-08-27T08:23:36.849Z,19.38
2022-08-27T08:24:40.148Z,19.44
2022-08-27T08:25:47.823Z,19.50
2022-08-27T08:27:23.628Z,19.69
2022-08-27T08:28:26.906Z,19.75
2022-08-27T08:29:30.252Z,19.81
2022-08-27T08:31:10.450Z,20.00
2022-08-27T08:32:14.270Z,20.06
2022-08-27T08:33:17.718Z,20.06
2022-08-27T08:34:58.417Z,20.19
2022-08-27T08:36:09.961Z,20.25
2022-08-27T08:37:13.224Z,20.38
2022-08-27T08:38:48.919Z,20.44
2022-08-27T08:39:52.242Z,20.38
2022-08-27T08:40:55.961Z,20.38
2022-08-27T08:42:31.496Z,20.56
2022-08-27T08:43:42.673Z,20.63
2022-08-27T08:44:51.851Z,20.69
2022-08-27T08:46:28.470Z,20.81
2022-08-27T08:47:31.861Z,20.94
2022-08-27T08:48:35.256Z,20.94
2022-08-27T08:50:16.821Z,21.00
2022-08-27T08:51:23.060Z,21.00
2022-08-27T08:52:31.593Z,21.06
2022-08-27T08:54:07.228Z,21.06
2022-08-27T08:55:10.658Z,21.06
2022-08-27T08:56:13.958Z,21.06
2022-08-27T08:57:53.603Z,21.00
2022-08-27T08:58:57.252Z,21.06
2022-08-27T09:00:00.720Z,21.06
2022-08-27T09:00:12.060Z,21.06
2022-08-27T09:01:15.828Z,21.13
2022-08-27T09:02:19.727Z,21.25
2022-08-27T09:03:57.643Z,21.19
2022-08-27T09:05:01.397Z,21.13
2022-08-27T09:06:08.255Z,21.06
2022-08-27T09:07:44.749Z,21.06
2022-08-27T09:09:24.380Z,20.94
2022-08-27T09:10:27.733Z,20.88
2022-08-27T09:12:03.354Z,20.81
2022-08-27T09:13:06.855Z,20.75
2022-08-27T09:14:13.317Z,20.69
2022-08-27T09:15:57.784Z,20.63
2022-08-27T09:17:01.449Z,20.63
2022-08-27T09:18:13.978Z,20.69
2022-08-27T09:20:07.407Z,20.88
2022-08-27T09:21:18.437Z,21.06
2022-08-27T09:22:31.646Z,21.19
2022-08-27T09:24:07.205Z,21.44
2022-08-27T09:25:11.968Z,21.44
2022-08-27T09:26:18.773Z,21.50
2022-08-27T09:27:55.856Z,21.56
2022-08-27T09:28:59.243Z,21.63
2022-08-27T09:30:02.655Z,21.56
2022-08-27T09:31:43.846Z,21.56
2022-08-27T09:32:47.238Z,21.69
2022-08-27T09:33:56.691Z,21.81
2022-08-27T09:35:32.647Z,21.75
2022-08-27T09:36:35.997Z,21.63
2022-08-27T09:37:39.519Z,21.56
2022-08-27T09:39:15.025Z,21.56
2022-08-27T09:40:23.455Z,21.56
2022-08-27T09:41:27.706Z,21.69
2022-08-27T09:43:03.296Z,22.00
2022-08-27T09:44:06.655Z,22.13
2022-08-27T09:45:11.970Z,22.31
2022-08-27T09:46:48.279Z,22.38
2022-08-27T09:47:51.541Z,22.38
2022-08-27T09:48:55.151Z,22.50
2022-08-27T09:50:30.586Z,22.50
2022-08-27T09:51:39.554Z,22.38
2022-08-27T09:52:43.003Z,22.31
2022-08-27T09:54:18.524Z,22.19
2022-08-27T09:55:22.158Z,22.13
2022-08-27T09:56:28.773Z,22.13
2022-08-27T09:58:09.473Z,22.00
2022-08-27T09:59:12.978Z,21.94
2022-08-27T10:00:12.712Z,21.94
2022-08-27T10:01:16.249Z,21.88
2022-08-27T10:02:20.330Z,21.81
2022-08-27T10:03:58.675Z,21.75
2022-08-27T10:05:02.598Z,21.69
2022-08-27T10:06:06.102Z,21.63
2022-08-27T10:07:41.895Z,21.56
2022-08-27T10:08:45.659Z,21.63
2022-08-27T10:09:53.553Z,21.63
2022-08-27T10:11:28.887Z,21.63
2022-08-27T10:12:34.442Z,21.69
2022-08-27T10:13:45.705Z,21.69
2022-08-27T10:15:21.268Z,21.69
2022-08-27T10:16:36.248Z,21.69
2022-08-27T10:17:40.055Z,21.63
2022-08-27T10:19:15.645Z,21.56
2022-08-27T10:20:20.355Z,21.56
2022-08-27T10:21:40.560Z,21.56
2022-08-27T10:23:17.775Z,21.44
2022-08-27T10:24:21.085Z,21.38
2022-08-27T10:25:24.364Z,21.38
2022-08-27T10:27:06.873Z,21.38
2022-08-27T10:28:11.947Z,21.31
2022-08-27T10:29:19.252Z,21.25
2022-08-27T10:30:55.057Z,21.25
2022-08-27T10:31:58.798Z,21.13
2022-08-27T10:33:03.868Z,21.13
2022-08-27T10:34:58.587Z,21.13
2022-08-27T10:36:02.098Z,21.19
2022-08-27T10:37:12.682Z,21.25
2022-08-27T10:39:00.750Z,21.31
2022-08-27T10:40:05.793Z,21.38
2022-08-27T10:41:09.718Z,21.38
2022-08-27T10:42:45.222Z,21.44
2022-08-27T10:43:55.813Z,21.50
2022-08-27T10:44:59.220Z,21.50
2022-08-27T10:46:50.852Z,21.63
2022-08-27T10:47:54.360Z,21.63
2022-08-27T10:48:59.236Z,21.94
2022-08-27T10:50:39.884Z,22.13
2022-08-27T10:51:43.264Z,22.50
2022-08-27T10:52:51.568Z,22.63
2022-08-27T10:54:27.340Z,22.75
2022-08-27T10:55:30.707Z,22.75
2022-08-27T10:56:34.056Z,22.63
2022-08-27T10:59:07.203Z,22.38
2022-08-27T11:00:12.677Z,22.19
2022-08-27T11:01:16.281Z,22.06
2022-08-27T11:02:19.950Z,22.00
2022-08-27T11:04:00.196Z,21.94
2022-08-27T11:05:03.888Z,21.88
2022-08-27T11:06:08.427Z,21.81
2022-08-27T11:07:43.949Z,21.75
2022-08-27T11:08:49.393Z,21.69
2022-08-27T11:09:59.495Z,21.63
2022-08-27T11:12:48.507Z,21.50
2022-08-27T11:13:51.953Z,21.44
2022-08-27T11:14:59.237Z,21.44
2022-08-27T11:16:37.328Z,21.50
2022-08-27T11:17:43.791Z,21.56
2022-08-27T11:18:47.705Z,21.63
2022-08-27T11:20:23.216Z,21.63
2022-08-27T11:21:26.593Z,21.63
2022-08-27T11:22:29.957Z,21.56
2022-08-27T11:24:05.531Z,21.38
2022-08-27T11:25:15.011Z,21.38
2022-08-27T11:26:18.511Z,21.38
2022-08-27T11:27:54.027Z,21.38
2022-08-27T11:29:05.220Z,21.38
2022-08-27T11:30:15.534Z,21.50
2022-08-27T11:31:51.727Z,21.44
2022-08-27T11:32:55.396Z,21.31
2022-08-27T11:34:05.883Z,21.38
2022-08-27T11:35:41.506Z,21.56
2022-08-27T11:36:44.650Z,21.56
2022-08-27T11:37:52.357Z,21.63
2022-08-27T11:39:28.677Z,21.69
2022-08-27T11:40:38.234Z,21.75
2022-08-27T11:41:45.233Z,21.81
2022-08-27T11:43:20.908Z,21.88
2022-08-27T11:44:24.186Z,21.94
2022-08-27T11:45:27.597Z,22.00
2022-08-27T11:47:12.064Z,22.13
2022-08-27T11:48:19.691Z,22.19
2022-08-27T11:49:29.898Z,22.25
2022-08-27T11:51:05.536Z,22.31
2022-08-27T11:52:11.161Z,22.31
2022-08-27T11:53:15.838Z,22.13
2022-08-27T11:55:11.107Z,21.88
2022-08-27T11:56:14.425Z,21.94
2022-08-27T11:57:17.750Z,21.94
2022-08-27T11:58:53.747Z,22.06
2022-08-27T11:59:57.164Z,22.19
2022-08-27T12:00:12.125Z,22.19
2022-08-27T12:01:15.421Z,22.25
2022-08-27T12:02:18.794Z,22.38
2022-08-27T12:03:54.539Z,22.50
2022-08-27T12:04:58.262Z,22.56
2022-08-27T12:06:07.224Z,22.69
2022-08-27T12:07:46.721Z,22.75
2022-08-27T12:08:51.068Z,22.81
2022-08-27T12:09:54.345Z,22.88
2022-08-27T12:11:30.353Z,22.88
2022-08-27T12:12:37.402Z,22.94
2022-08-27T12:13:41.540Z,22.88
2022-08-27T12:15:18.775Z,22.81
2022-08-27T12:16:31.891Z,22.88
2022-08-27T12:17:35.921Z,23.00
2022-08-27T12:19:11.537Z,23.06
2022-08-27T12:20:14.933Z,23.13
2022-08-27T12:21:18.248Z,23.19
2022-08-27T12:22:53.786Z,23.06
2022-08-27T12:23:57.023Z,23.06
2022-08-27T12:25:00.426Z,23.13
2022-08-27T12:26:35.883Z,23.06
2022-08-27T12:27:39.272Z,23.13
2022-08-27T12:28:42.769Z,23.13
2022-08-27T12:30:21.661Z,23.19
2022-08-27T12:31:25.047Z,23.25
2022-08-27T12:32:28.918Z,23.31
2022-08-27T12:34:04.310Z,23.38
2022-08-27T12:35:10.685Z,23.50
2022-08-27T12:36:14.690Z,23.56
2022-08-27T12:38:02.017Z,23.63
2022-08-27T12:39:08.001Z,23.69
2022-08-27T12:40:13.341Z,23.75
2022-08-27T12:41:54.597Z,23.63
2022-08-27T12:42:57.849Z,23.50
2022-08-27T12:44:01.257Z,23.44
2022-08-27T12:45:37.034Z,23.25
2022-08-27T12:46:40.201Z,23.13
2022-08-27T12:47:50.613Z,23.13
2022-08-27T12:49:38.862Z,23.13
2022-08-27T12:50:47.858Z,23.06
2022-08-27T12:51:55.163Z,22.94
2022-08-27T12:53:30.533Z,22.88
2022-08-27T12:54:34.021Z,22.81
2022-08-27T12:55:37.436Z,22.81
2022-08-27T12:57:12.648Z,22.81
2022-08-27T12:58:16.139Z,22.81
2022-08-27T12:59:20.259Z,22.81
2022-08-27T13:00:12.878Z,22.88
2022-08-27T13:01:19.546Z,22.88
2022-08-27T13:02:30.027Z,22.88
2022-08-27T13:04:05.513Z,22.81
2022-08-27T13:05:10.373Z,22.75
2022-08-27T13:06:14.045Z,22.75
2022-08-27T13:07:51.224Z,22.69
2022-08-27T13:08:54.619Z,22.75
2022-08-27T13:09:58.054Z,22.81
2022-08-27T13:11:33.653Z,22.81
2022-08-27T13:12:37.194Z,22.88
2022-08-27T13:13:40.672Z,22.88
2022-08-27T13:15:16.229Z,22.94
2022-08-27T13:16:19.619Z,22.94
2022-08-27T13:17:26.301Z,23.00
2022-08-27T13:19:05.409Z,23.06
2022-08-27T13:20:08.674Z,23.13
2022-08-27T13:21:12.021Z,23.19
2022-08-27T13:22:47.504Z,23.25
2022-08-27T13:23:55.470Z,23.38
2022-08-27T13:24:58.692Z,23.50
2022-08-27T13:26:34.166Z,23.63
2022-08-27T13:27:37.728Z,23.63
2022-08-27T13:28:41.004Z,23.56
2022-08-27T13:30:36.358Z,23.56
2022-08-27T13:31:40.291Z,23.50
2022-08-27T13:32:43.885Z,23.50
2022-08-27T13:34:19.407Z,23.56
2022-08-27T13:35:22.885Z,23.50
2022-08-27T13:36:26.037Z,23.56
2022-08-27T13:38:02.353Z,23.63
2022-08-27T13:39:05.859Z,23.63
2022-08-27T13:40:09.204Z,23.69
2022-08-27T13:41:45.258Z,23.56
2022-08-27T13:42:48.605Z,23.38
2022-08-27T13:43:59.227Z,23.25
2022-08-27T13:45:35.090Z,23.25
2022-08-27T13:46:41.446Z,23.25
2022-08-27T13:47:46.619Z,23.25
2022-08-27T13:49:22.356Z,23.31
2022-08-27T13:50:32.118Z,23.25
2022-08-27T13:51:35.649Z,23.31
2022-08-27T13:53:11.980Z,23.25
2022-08-27T13:54:15.638Z,23.25
2022-08-27T13:55:19.901Z,23.19
2022-08-27T13:56:57.723Z,23.13
2022-08-27T13:58:01.263Z,23.00
2022-08-27T13:59:04.757Z,23.00
2022-08-27T14:00:12.571Z,23.06
2022-08-27T14:01:16.149Z,23.06
2022-08-27T14:02:20.590Z,23.06
2022-08-27T14:04:09.620Z,23.06
2022-08-27T14:05:12.959Z,23.13
2022-08-27T14:06:16.397Z,23.19
2022-08-27T14:07:59.612Z,23.19
2022-08-27T14:09:03.229Z,23.25
2022-08-27T14:10:06.713Z,23.31
2022-08-27T14:11:42.249Z,23.25
2022-08-27T14:12:45.525Z,23.25
2022-08-27T14:13:48.970Z,23.31
2022-08-27T14:15:24.363Z,23.25
2022-08-27T14:16:27.929Z,23.25
2022-08-27T14:17:31.262Z,23.31
2022-08-27T14:19:38.675Z,23.25
2022-08-27T14:20:44.383Z,23.25
2022-08-27T14:21:48.607Z,23.19
2022-08-27T14:23:23.879Z,23.06
2022-08-27T14:24:27.405Z,23.06
2022-08-27T14:25:30.757Z,23.06
2022-08-27T14:27:06.281Z,23.06
2022-08-27T14:28:09.750Z,23.00
2022-08-27T14:29:13.162Z,23.00
2022-08-27T14:30:53.198Z,23.00
2022-08-27T14:31:57.671Z,23.00
2022-08-27T14:33:01.077Z,23.00
2022-08-27T14:34:36.453Z,23.00
2022-08-27T14:35:39.700Z,23.00
2022-08-27T14:36:43.084Z,22.94
2022-08-27T14:38:25.297Z,22.94
2022-08-27T14:39:31.685Z,22.94
2022-08-27T14:40:41.662Z,22.94
2022-08-27T14:42:23.139Z,22.94
2022-08-27T14:43:29.188Z,23.00
2022-08-27T14:44:36.060Z,23.00
2022-08-27T14:46:14.697Z,23.00
2022-08-27T14:47:23.654Z,23.06
2022-08-27T14:48:37.513Z,23.13
2022-08-27T14:50:21.578Z,23.19
2022-08-27T14:51:24.842Z,23.19
2022-08-27T14:52:28.218Z,23.19
2022-08-27T14:54:03.556Z,23.06
2022-08-27T14:55:14.282Z,23.13
2022-08-27T14:56:26.260Z,23.13
2022-08-27T14:58:01.730Z,23.13
2022-08-27T14:59:05.243Z,23.19
2022-08-27T15:00:12.186Z,23.19
2022-08-27T15:01:15.747Z,23.25
2022-08-27T15:02:21.001Z,23.31
2022-08-27T15:04:00.825Z,23.31
2022-08-27T15:05:12.679Z,23.25
2022-08-27T15:06:18.282Z,23.19
2022-08-27T15:07:58.658Z,23.19
2022-08-27T15:09:11.093Z,23.13
2022-08-27T15:10:14.850Z,23.13
2022-08-27T15:11:50.313Z,23.13
2022-08-27T15:13:11.986Z,23.19
2022-08-27T15:14:19.153Z,23.25
2022-08-27T15:15:54.533Z,23.38
2022-08-27T15:16:58.486Z,23.50
2022-08-27T15:18:33.022Z,23.69
2022-08-27T15:20:23.439Z,23.94
2022-08-27T15:21:26.664Z,24.00
2022-08-27T15:22:30.019Z,24.06
2022-08-27T15:24:08.384Z,24.00
2022-08-27T15:25:11.764Z,23.88
2022-08-27T15:26:14.959Z,23.81
2022-08-27T15:27:51.369Z,23.75
2022-08-27T15:28:55.076Z,23.56
2022-08-27T15:30:04.238Z,23.50
2022-08-27T15:31:40.483Z,23.44
2022-08-27T15:32:43.614Z,23.38
2022-08-27T15:33:46.879Z,23.31
2022-08-27T15:35:22.231Z,23.25
2022-08-27T15:36:25.730Z,23.19
2022-08-27T15:37:29.451Z,23.06
2022-08-27T15:39:04.725Z,22.94
2022-08-27T15:40:08.216Z,22.94
2022-08-27T15:41:12.067Z,22.94
2022-08-27T15:43:19.729Z,22.94
2022-08-27T15:44:23.109Z,22.94
2022-08-27T15:45:27.500Z,23.00
2022-08-27T15:47:03.696Z,22.88
2022-08-27T15:48:11.666Z,22.88
2022-08-27T15:49:15.083Z,22.81
2022-08-27T15:50:52.138Z,22.75
2022-08-27T15:51:59.528Z,22.81
2022-08-27T15:53:21.194Z,22.69
2022-08-27T15:54:58.454Z,22.63
2022-08-27T15:56:01.789Z,22.63
2022-08-27T15:57:09.669Z,22.63
2022-08-27T15:58:45.444Z,22.63
2022-08-27T15:59:48.918Z,22.63
2022-08-27T16:00:11.926Z,22.63
2022-08-27T16:01:15.400Z,22.63
2022-08-27T16:02:19.415Z,22.63
2022-08-27T16:04:03.170Z,22.63
2022-08-27T16:05:41.229Z,22.63
2022-08-27T16:06:45.978Z,22.50
2022-08-27T16:07:52.717Z,22.56
2022-08-27T16:09:28.747Z,22.56
2022-08-27T16:10:32.322Z,22.63
2022-08-27T16:11:37.210Z,22.63
2022-08-27T16:13:14.149Z,22.69
2022-08-27T16:14:17.675Z,22.75
2022-08-27T16:15:21.362Z,22.69